Terminal Aerodrome Forecast
Issued by NWS

Home | Current Version | Previous Version | Text Only | Print | Product List | Glossary On
Versions: 1 2 3 4 5 6 7 8 9 10 11 12 13 14 15 16 17
211
FTUS45 KFGZ 270003 AAB
TAFGCN
TAF AMD
KGCN 270003Z 2700/2724 VRB10G18KT P6SM VCSH SCT070 BKN120
     FM270300 VRB03KT P6SM SCT070 BKN100
     FM270900 VRB03KT P6SM FEW100
     FM271800 26009G15KT P6SM SCT070 BKN100 PROB30 2718/2724 P6SM
      -TSRA BKN050CB=

USA.gov is the U.S. government's official web portal to all federal, state and local government web resources and services.